Time;durP1;ratioP1;P1;durP2;ratioP2;P2;SDS_P1;SDS_P2;PMS_P1;PMS_P2;Temp;Humidity;BMP_temperature;BMP_pressure;BME280_temperature;BME280_humidity;BME280_pressure;Samples;Min_cycle;Max_cycle;Signal;HPM_P1;HPM_P2
2022/06/04 00:00:30;;;;;;;7.15;3.33;;;12.20;99.90;;;;;;4879188;29;20530;-82
2022/06/04 00:02:56;;;;;;;3.53;2.75;;;12.20;99.90;;;;;;4878959;29;20048;-83
2022/06/04 00:05:25;;;;;;;5.13;2.95;;;12.20;99.90;;;;;;4879126;29;20369;-83
2022/06/04 00:07:52;;;;;;;7.05;3.35;;;12.20;99.90;;;;;;4878109;29;20045;-83
2022/06/04 00:15:52;;;;;;;5.55;3.10;;;12.10;99.90;;;;;;4878541;29;20064;-86
2022/06/04 00:18:19;;;;;;;6.22;2.95;;;12.10;99.90;;;;;;4877516;29;20511;-83
2022/06/04 00:20:45;;;;;;;5.47;4.00;;;12.00;99.90;;;;;;4879054;29;20128;-83
2022/06/04 00:23:12;;;;;;;4.95;3.47;;;12.00;99.90;;;;;;4876722;29;20095;-83
2022/06/04 00:25:41;;;;;;;4.30;3.38;;;12.00;99.90;;;;;;4863691;29;20093;-83
2022/06/04 00:28:09;;;;;;;4.95;3.78;;;12.00;99.90;;;;;;4889839;29;20045;-83
2022/06/04 00:30:35;;;;;;;4.60;3.20;;;11.90;99.90;;;;;;4878460;29;20053;-82
2022/06/04 00:33:02;;;;;;;8.95;3.47;;;11.90;99.90;;;;;;4878066;29;20128;-83
2022/06/04 00:35:28;;;;;;;6.25;3.55;;;11.90;99.90;;;;;;4878715;29;20056;-83
2022/06/04 00:37:54;;;;;;;4.70;3.03;;;11.70;99.90;;;;;;4878147;29;20049;-83
2022/06/04 00:40:46;;;;;;;3.90;2.63;;;11.80;99.90;;;;;;4876415;29;20079;-83
2022/06/04 00:43:12;;;;;;;6.18;3.25;;;11.80;99.90;;;;;;4878308;29;20132;-84
2022/06/04 00:45:37;;;;;;;4.80;2.72;;;11.70;99.90;;;;;;4879823;29;20049;-83
2022/06/04 00:48:09;;;;;;;4.80;2.60;;;11.80;99.90;;;;;;4859444;29;20052;-83
2022/06/04 00:50:39;;;;;;;6.88;3.03;;;11.80;99.90;;;;;;4876527;29;20063;-82
2022/06/04 00:53:09;;;;;;;7.10;3.08;;;11.80;99.90;;;;;;4877374;29;20041;-83
2022/06/04 00:55:58;;;;;;;4.43;2.97;;;11.80;99.90;;;;;;4878260;29;20515;-83
2022/06/04 00:58:37;;;;;;;6.30;3.33;;;11.80;99.90;;;;;;4854728;29;20677;-83
2022/06/04 01:01:13;;;;;;;3.42;2.72;;;11.80;99.90;;;;;;4869064;29;20053;-88
2022/06/04 01:04:06;;;;;;;5.28;3.03;;;11.80;99.90;;;;;;4878113;29;20057;-82
2022/06/04 01:06:55;;;;;;;4.55;3.35;;;11.70;99.90;;;;;;4873961;29;20404;-83
2022/06/04 01:09:21;;;;;;;10.23;3.70;;;11.70;99.90;;;;;;4873819;29;20041;-82
2022/06/04 01:12:28;;;;;;;7.80;4.77;;;11.70;99.90;;;;;;4875922;29;20037;-82
2022/06/04 01:15:12;;;;;;;5.00;3.40;;;11.80;99.90;;;;;;4823931;29;20058;-83
2022/06/04 01:18:03;;;;;;;5.30;3.13;;;11.70;99.90;;;;;;4885798;29;20125;-83
2022/06/04 01:20:39;;;;;;;4.93;3.13;;;11.80;99.90;;;;;;4865757;29;20077;-82
2022/06/04 01:23:30;;;;;;;8.77;3.80;;;11.70;99.90;;;;;;4877796;29;20053;-87
2022/06/04 01:26:14;;;;;;;6.43;3.17;;;11.70;99.90;;;;;;4867459;29;20045;-82
2022/06/04 01:29:05;;;;;;;5.88;4.10;;;11.70;99.90;;;;;;4878021;29;20053;-82
2022/06/04 01:31:39;;;;;;;3.47;2.78;;;11.60;99.90;;;;;;4876521;29;20052;-82
2022/06/04 01:34:10;;;;;;;8.05;3.95;;;11.60;99.90;;;;;;4876780;29;20400;-87
2022/06/04 01:37:09;;;;;;;6.10;3.00;;;11.60;99.90;;;;;;4868724;29;20097;-83
2022/06/04 01:42:27;;;;;;;4.75;3.78;;;11.50;99.90;;;;;;4875586;29;20133;-82
2022/06/04 01:44:55;;;;;;;9.52;3.55;;;11.50;99.90;;;;;;4876267;29;20120;-83
2022/06/04 01:47:22;;;;;;;8.52;5.18;;;11.50;99.90;;;;;;4876926;29;20594;-82
2022/06/04 01:49:54;;;;;;;8.55;3.88;;;11.50;99.90;;;;;;4861682;29;20053;-82
2022/06/04 01:52:32;;;;;;;7.07;3.90;;;11.50;99.90;;;;;;4875729;29;20053;-84
2022/06/04 01:55:28;;;;;;;4.55;3.70;;;11.40;99.90;;;;;;4877471;29;20583;-82
2022/06/04 01:58:04;;;;;;;6.93;3.92;;;11.40;99.90;;;;;;4877199;29;20057;-82
2022/06/04 02:00:38;;;;;;;8.48;3.95;;;11.40;99.90;;;;;;4876863;29;20675;-82
2022/06/04 02:03:11;;;;;;;7.72;3.97;;;11.40;99.90;;;;;;4878291;29;20040;-82
2022/06/04 02:05:54;;;;;;;4.85;4.18;;;11.30;99.90;;;;;;4863967;29;20205;-82
2022/06/04 02:08:30;;;;;;;6.47;4.05;;;11.30;99.90;;;;;;4876847;29;20433;-82
2022/06/04 02:11:05;;;;;;;5.75;4.65;;;11.30;99.90;;;;;;4887551;29;20051;-82
2022/06/04 02:13:31;;;;;;;10.95;4.07;;;11.20;99.90;;;;;;4875739;29;20057;-82
2022/06/04 02:16:16;;;;;;;4.88;3.72;;;11.20;99.90;;;;;;4876262;29;20053;-82
2022/06/04 02:18:42;;;;;;;11.45;4.30;;;11.20;99.90;;;;;;4877074;29;20056;-82
2022/06/04 02:21:07;;;;;;;6.80;5.50;;;11.20;99.90;;;;;;4859352;29;20045;-82
2022/06/04 02:23:35;;;;;;;7.23;4.40;;;11.20;99.90;;;;;;4862449;29;20641;-82
2022/06/04 02:26:01;;;;;;;5.03;3.60;;;11.30;99.90;;;;;;4876553;29;20049;-82
2022/06/04 02:28:28;;;;;;;7.63;4.90;;;11.30;99.90;;;;;;4860430;29;20100;-82
2022/06/04 02:31:07;;;;;;;7.45;4.63;;;11.30;99.90;;;;;;4875467;29;20047;-82
2022/06/04 02:33:45;;;;;;;6.22;4.53;;;11.20;99.90;;;;;;4891796;29;20041;-82
2022/06/04 02:36:19;;;;;;;6.35;4.13;;;11.20;99.90;;;;;;4876429;29;20144;-82
2022/06/04 02:38:54;;;;;;;6.07;4.45;;;11.20;99.90;;;;;;4876305;29;20053;-86
2022/06/04 02:41:30;;;;;;;8.88;4.43;;;11.20;99.90;;;;;;4872008;29;20045;-82
2022/06/04 02:44:07;;;;;;;7.63;4.18;;;11.20;99.90;;;;;;4891674;29;20139;-83
2022/06/04 02:46:40;;;;;;;5.93;4.35;;;11.10;99.90;;;;;;4876177;29;20060;-82
2022/06/04 02:49:21;;;;;;;5.20;3.47;;;11.10;99.90;;;;;;4875189;29;20048;-82
2022/06/04 02:51:51;;;;;;;5.10;3.85;;;11.10;99.90;;;;;;4885029;29;20049;-82
2022/06/04 02:54:23;;;;;;;6.13;4.32;;;11.20;99.90;;;;;;4876981;29;20415;-85
2022/06/04 02:56:51;;;;;;;6.40;4.05;;;11.20;99.90;;;;;;4875190;29;20059;-82
2022/06/04 02:59:20;;;;;;;6.53;4.40;;;11.20;99.90;;;;;;4875632;29;20433;-86
2022/06/04 03:01:50;;;;;;;4.80;4.10;;;11.20;99.90;;;;;;4875260;29;20064;-82
2022/06/04 03:04:16;;;;;;;7.18;5.00;;;11.10;99.90;;;;;;4875484;29;20037;-82
2022/06/04 03:06:42;;;;;;;5.90;4.40;;;11.20;99.90;;;;;;4876963;29;20105;-82
2022/06/04 03:09:11;;;;;;;4.60;3.67;;;11.10;99.90;;;;;;4876683;29;20477;-82
2022/06/04 03:11:45;;;;;;;6.97;4.82;;;11.10;99.90;;;;;;4884541;29;20109;-82
2022/06/04 03:14:12;;;;;;;7.43;4.65;;;11.10;99.90;;;;;;4876318;29;20049;-82
2022/06/04 03:16:42;;;;;;;4.85;3.60;;;11.00;99.90;;;;;;4894104;29;20389;-83
2022/06/04 03:19:09;;;;;;;9.00;4.80;;;11.00;99.90;;;;;;4878441;29;20052;-83
2022/06/04 03:21:37;;;;;;;5.15;4.38;;;11.00;99.90;;;;;;4878876;29;20049;-82
2022/06/04 03:24:04;;;;;;;5.32;4.05;;;11.00;99.90;;;;;;4895144;29;20132;-82
2022/06/04 03:26:31;;;;;;;5.80;3.78;;;10.90;99.90;;;;;;4865699;29;20056;-82
2022/06/04 03:28:56;;;;;;;6.57;3.95;;;10.90;99.90;;;;;;4875467;29;20049;-82
2022/06/04 03:31:22;;;;;;;5.90;4.53;;;10.80;99.90;;;;;;4877974;29;20127;-87
2022/06/04 03:33:48;;;;;;;6.27;3.93;;;10.80;99.90;;;;;;4877565;29;20056;-82
2022/06/04 03:36:14;;;;;;;5.07;4.03;;;10.80;99.90;;;;;;4861897;29;20313;-82
2022/06/04 03:38:40;;;;;;;5.70;4.13;;;10.70;99.90;;;;;;4877527;29;20048;-82
2022/06/04 03:41:05;;;;;;;7.50;3.37;;;10.80;99.90;;;;;;4879323;29;20052;-82
2022/06/04 03:43:31;;;;;;;4.80;3.63;;;10.70;99.90;;;;;;4877833;29;20044;-82
2022/06/04 03:45:57;;;;;;;6.00;4.23;;;10.70;99.90;;;;;;4866723;29;20475;-82
2022/06/04 03:48:22;;;;;;;4.40;3.70;;;10.70;99.90;;;;;;4864068;29;20048;-82
2022/06/04 03:50:48;;;;;;;8.47;3.87;;;10.60;99.90;;;;;;4898747;29;20049;-82
2022/06/04 03:53:14;;;;;;;3.90;3.50;;;10.80;99.90;;;;;;4882462;29;20172;-82
2022/06/04 03:55:40;;;;;;;4.67;3.83;;;10.70;99.90;;;;;;4880246;29;20135;-82
2022/06/04 03:58:06;;;;;;;6.33;4.20;;;10.70;99.90;;;;;;4880313;29;20628;-83
2022/06/04 04:00:35;;;;;;;5.70;3.40;;;10.70;99.90;;;;;;4866624;29;20049;-82
2022/06/04 04:03:11;;;;;;;4.15;3.38;;;10.70;99.90;;;;;;4898324;29;20056;-82
2022/06/04 04:05:46;;;;;;;7.35;3.80;;;10.80;99.90;;;;;;4877827;29;20040;-82
2022/06/04 04:08:12;;;;;;;4.80;3.85;;;10.80;99.90;;;;;;4896545;29;20052;-82
2022/06/04 04:10:40;;;;;;;4.67;3.70;;;10.60;99.90;;;;;;4881610;29;20052;-82
2022/06/04 04:13:06;;;;;;;5.55;3.53;;;10.80;99.90;;;;;;4882283;29;20040;-83
2022/06/04 04:15:32;;;;;;;6.18;3.35;;;10.80;99.90;;;;;;4877132;29;20166;-82
2022/06/04 04:17:58;;;;;;;5.30;3.30;;;10.80;99.90;;;;;;4878942;29;20124;-83
2022/06/04 04:20:27;;;;;;;5.13;3.55;;;10.80;99.90;;;;;;4875748;29;20045;-82
2022/06/04 04:22:54;;;;;;;5.63;2.97;;;10.90;99.90;;;;;;4879400;29;20055;-82
2022/06/04 04:25:21;;;;;;;3.67;2.47;;;10.90;99.90;;;;;;4878972;29;20053;-83
2022/06/04 04:27:48;;;;;;;3.80;2.55;;;10.90;99.90;;;;;;4882191;29;20049;-82
2022/06/04 04:30:17;;;;;;;3.30;2.97;;;10.90;99.90;;;;;;4877420;29;20392;-82
2022/06/04 04:32:43;;;;;;;4.13;3.00;;;11.00;99.90;;;;;;4878952;29;20445;-82
2022/06/04 04:35:13;;;;;;;4.87;2.90;;;11.00;99.90;;;;;;4893749;29;20049;-83
2022/06/04 04:37:39;;;;;;;8.93;3.75;;;11.00;99.90;;;;;;4878167;29;20067;-82
2022/06/04 04:40:06;;;;;;;3.03;2.70;;;11.00;99.90;;;;;;4878027;29;20045;-82
2022/06/04 04:42:31;;;;;;;7.28;3.85;;;11.00;99.90;;;;;;4877044;29;20087;-90
2022/06/04 04:44:57;;;;;;;6.67;3.87;;;11.10;99.90;;;;;;4879549;29;20044;-82
2022/06/04 04:47:23;;;;;;;3.50;2.77;;;11.10;99.90;;;;;;4878147;29;20096;-82
2022/06/04 04:49:49;;;;;;;3.78;3.08;;;11.10;99.90;;;;;;4877582;29;20124;-82
2022/06/04 04:52:15;;;;;;;3.88;2.67;;;11.20;99.90;;;;;;4893858;29;20124;-82
2022/06/04 04:54:41;;;;;;;5.87;3.07;;;11.20;99.90;;;;;;4861308;29;20144;-84
2022/06/04 04:57:06;;;;;;;5.35;2.80;;;11.30;99.90;;;;;;4877186;29;20048;-82
2022/06/04 04:59:32;;;;;;;2.90;2.63;;;11.30;99.90;;;;;;4875450;29;20053;-82
2022/06/04 05:01:58;;;;;;;4.07;1.97;;;11.40;99.90;;;;;;4877679;29;20113;-82
2022/06/04 05:04:23;;;;;;;3.57;2.40;;;11.40;99.90;;;;;;4878313;29;20472;-82
2022/06/04 05:06:49;;;;;;;2.53;2.20;;;11.50;99.90;;;;;;4880419;29;20036;-85
2022/06/04 05:09:15;;;;;;;2.23;1.93;;;11.70;99.90;;;;;;4892677;29;20465;-85
2022/06/04 05:11:41;;;;;;;2.77;2.20;;;11.80;99.90;;;;;;4875779;29;20037;-85
2022/06/04 05:14:06;;;;;;;4.93;2.15;;;12.00;99.90;;;;;;4878020;29;20041;-86
2022/06/04 05:16:36;;;;;;;3.87;2.53;;;12.20;99.90;;;;;;4881202;29;20065;-88
2022/06/04 05:19:02;;;;;;;2.15;1.95;;;12.40;99.90;;;;;;4879855;29;20040;-86
2022/06/04 05:21:39;;;;;;;;;;;12.60;99.90;;;;;;4881991;29;20404;-86
2022/06/04 05:24:06;;;;;;;3.95;2.30;;;12.80;99.90;;;;;;4881684;29;19983;-85
2022/06/04 05:26:32;;;;;;;4.70;2.55;;;12.80;99.90;;;;;;4875118;29;20056;-86
2022/06/04 05:28:58;;;;;;;2.95;2.10;;;12.90;99.90;;;;;;4879554;29;20488;-86
2022/06/04 05:31:24;;;;;;;4.57;2.23;;;12.90;99.90;;;;;;4850143;29;20061;-87
2022/06/04 05:33:49;;;;;;;4.93;2.30;;;13.00;99.90;;;;;;4880915;29;20041;-87
2022/06/04 05:36:15;;;;;;;1.87;1.77;;;13.10;99.90;;;;;;4865710;29;20503;-87
2022/06/04 05:38:42;;;;;;;3.45;2.25;;;13.10;99.90;;;;;;4881207;29;20044;-90
2022/06/04 05:41:10;;;;;;;2.40;1.88;;;13.20;99.90;;;;;;4866465;29;20081;-83
2022/06/04 05:43:39;;;;;;;3.63;2.05;;;13.20;99.90;;;;;;4885721;29;20054;-86
2022/06/04 05:46:08;;;;;;;2.90;2.60;;;13.30;99.90;;;;;;4864165;29;20059;-86
2022/06/04 05:48:41;;;;;;;2.30;2.10;;;13.30;99.90;;;;;;4881669;29;20543;-85
2022/06/04 05:51:09;;;;;;;2.63;1.90;;;13.30;99.90;;;;;;4885737;29;20097;-85
2022/06/04 05:53:35;;;;;;;2.63;2.35;;;13.40;99.90;;;;;;4896734;29;20404;-86
2022/06/04 05:56:00;;;;;;;4.10;2.40;;;13.40;99.90;;;;;;4878538;29;20053;-87
2022/06/04 05:58:26;;;;;;;3.27;2.10;;;13.50;99.90;;;;;;4880916;29;20395;-83
2022/06/04 06:01:00;;;;;;;2.80;2.27;;;13.60;99.90;;;;;;4880049;29;20044;-86
2022/06/04 06:03:25;;;;;;;2.60;2.28;;;13.70;99.90;;;;;;4875375;29;20091;-88
2022/06/04 06:05:51;;;;;;;2.53;2.30;;;13.80;99.90;;;;;;4862461;29;20539;-86
2022/06/04 06:08:17;;;;;;;2.87;2.07;;;13.90;99.90;;;;;;4881198;29;20051;-90
2022/06/04 06:10:44;;;;;;;2.60;2.00;;;13.80;99.90;;;;;;4879359;29;20091;-87
2022/06/04 06:13:13;;;;;;;3.35;2.45;;;13.80;99.90;;;;;;4875174;29;20055;-87
2022/06/04 06:15:39;;;;;;;4.50;1.88;;;13.90;99.90;;;;;;4878310;29;20232;-87
2022/06/04 06:18:06;;;;;;;2.60;2.17;;;13.90;99.90;;;;;;4864548;29;20174;-87
2022/06/04 06:20:33;;;;;;;5.10;1.90;;;13.90;99.90;;;;;;4885128;29;20049;-87
2022/06/04 06:22:58;;;;;;;3.33;3.03;;;13.90;99.90;;;;;;4880047;29;20052;-89
2022/06/04 06:25:25;;;;;;;2.57;1.90;;;13.80;99.90;;;;;;4881182;29;20128;-87
2022/06/04 06:27:50;;;;;;;4.40;2.55;;;13.90;99.90;;;;;;4881244;29;20053;-88
2022/06/04 06:30:21;;;;;;;3.47;2.30;;;13.90;99.90;;;;;;4882172;29;20051;-88
2022/06/04 06:32:47;;;;;;;2.78;2.25;;;14.10;99.90;;;;;;4865477;29;20387;-95
2022/06/04 06:35:13;;;;;;;4.57;2.30;;;14.30;99.90;;;;;;4862693;29;20044;-86
2022/06/04 06:37:38;;;;;;;2.92;1.85;;;14.50;99.90;;;;;;4879862;29;20087;-86
2022/06/04 06:40:05;;;;;;;6.30;2.77;;;14.70;99.90;;;;;;4865001;29;20036;-88
2022/06/04 06:42:31;;;;;;;4.03;2.92;;;14.80;99.90;;;;;;4880233;29;20052;-86
2022/06/04 06:44:56;;;;;;;3.03;2.17;;;14.90;99.90;;;;;;4860207;29;20055;-86
2022/06/04 06:47:23;;;;;;;3.83;2.73;;;15.00;99.90;;;;;;4880281;29;20094;-86
2022/06/04 06:49:49;;;;;;;2.55;1.90;;;15.10;99.90;;;;;;4895535;29;20453;-86
2022/06/04 06:52:16;;;;;;;3.80;2.47;;;15.20;99.90;;;;;;4879681;29;20076;-86
2022/06/04 06:54:42;;;;;;;5.68;3.13;;;15.30;99.90;;;;;;4879920;29;20060;-85
2022/06/04 06:57:10;;;;;;;3.10;2.70;;;15.30;99.90;;;;;;4880332;29;20048;-85
2022/06/04 06:59:37;;;;;;;3.53;2.22;;;15.30;99.90;;;;;;4892976;29;20056;-84
2022/06/04 07:02:03;;;;;;;;;;;15.30;99.90;;;;;;4879918;29;20396;-86
2022/06/04 07:04:28;;;;;;;4.70;2.47;;;15.40;99.90;;;;;;4876079;29;20306;-86
2022/06/04 07:06:59;;;;;;;2.70;2.27;;;15.50;99.90;;;;;;4863816;29;20044;-86
2022/06/04 07:09:27;;;;;;;4.10;2.45;;;15.60;99.90;;;;;;4864218;29;20048;-85
2022/06/04 07:11:54;;;;;;;3.88;2.50;;;15.70;99.90;;;;;;4894879;29;20056;-87
2022/06/04 07:14:22;;;;;;;3.20;2.22;;;15.80;99.90;;;;;;4894846;29;20049;-86
2022/06/04 07:16:49;;;;;;;3.58;2.75;;;15.90;99.90;;;;;;4880011;29;20049;-85
2022/06/04 07:19:16;;;;;;;4.38;2.72;;;15.90;99.90;;;;;;4862851;29;20397;-85
2022/06/04 07:21:43;;;;;;;3.03;1.90;;;16.00;99.90;;;;;;4883469;29;20068;-85
2022/06/04 07:24:09;;;;;;;2.88;2.28;;;16.10;99.90;;;;;;4867677;29;20041;-84
2022/06/04 07:26:35;;;;;;;;;;;16.20;99.90;;;;;;4883314;29;20052;-85
2022/06/04 07:29:01;;;;;;;1.88;1.77;;;16.40;99.90;;;;;;4884125;29;20018;-84
2022/06/04 07:31:29;;;;;;;2.72;2.13;;;16.50;99.90;;;;;;4884892;29;20092;-84
2022/06/04 07:33:56;;;;;;;3.03;2.33;;;16.60;99.90;;;;;;4884297;29;20052;-90
2022/06/04 07:36:25;;;;;;;6.75;2.72;;;16.60;99.90;;;;;;4884841;29;20049;-84
2022/06/04 07:38:51;;;;;;;4.72;2.20;;;16.70;99.90;;;;;;4882145;29;20048;-84
2022/06/04 07:41:18;;;;;;;;;;;16.80;99.90;;;;;;4865960;29;20063;-84
2022/06/04 07:43:44;;;;;;;4.95;2.55;;;16.90;99.90;;;;;;4865858;29;19975;-84
2022/06/04 07:46:10;;;;;;;3.63;2.53;;;16.90;99.90;;;;;;4865469;29;20041;-84
2022/06/04 07:48:36;;;;;;;2.47;1.90;;;17.00;99.90;;;;;;4888961;29;20059;-84
2022/06/04 07:51:04;;;;;;;13.37;2.53;;;17.00;99.90;;;;;;4867725;29;20053;-86
2022/06/04 07:53:31;;;;;;;2.15;1.90;;;17.20;99.90;;;;;;4884083;29;20052;-86
2022/06/04 07:55:56;;;;;;;;;;;17.30;99.90;;;;;;4853849;29;20472;-86
2022/06/04 07:58:22;;;;;;;2.50;1.88;;;17.40;99.90;;;;;;4868365;29;19923;-85
2022/06/04 08:00:57;;;;;;;5.70;3.13;;;17.40;99.90;;;;;;4838054;29;20080;-86
2022/06/04 08:03:23;;;;;;;4.40;2.40;;;17.50;99.90;;;;;;4884060;29;20123;-85
2022/06/04 08:05:52;;;;;;;2.97;2.17;;;17.70;99.90;;;;;;4867060;29;20173;-86
2022/06/04 08:08:18;;;;;;;2.78;1.98;;;17.90;99.90;;;;;;4868084;29;20048;-86
2022/06/04 08:10:48;;;;;;;3.08;2.13;;;18.00;99.90;;;;;;4883980;29;20041;-85
2022/06/04 08:13:36;;;;;;;3.95;2.33;;;17.90;99.90;;;;;;4867804;29;20044;-85
2022/06/04 08:16:01;;;;;;;6.10;2.53;;;17.90;99.90;;;;;;4882793;29;20056;-89
2022/06/04 08:18:27;;;;;;;2.55;2.05;;;17.90;99.90;;;;;;4899448;29;20056;-85
2022/06/04 08:20:53;;;;;;;2.08;1.83;;;18.00;99.90;;;;;;4883777;29;20056;-85
2022/06/04 08:23:19;;;;;;;4.97;2.25;;;18.10;99.90;;;;;;4899016;29;20071;-85
2022/06/04 08:25:50;;;;;;;;;;;18.20;99.90;;;;;;4898269;29;20042;-86
2022/06/04 08:28:16;;;;;;;2.65;2.00;;;18.10;99.90;;;;;;4883040;29;20402;-85
2022/06/04 08:30:44;;;;;;;2.95;1.90;;;18.20;99.90;;;;;;4882836;29;20403;-86
2022/06/04 08:33:10;;;;;;;4.07;2.10;;;18.20;99.90;;;;;;4882772;29;20112;-85
2022/06/04 08:35:36;;;;;;;4.72;2.20;;;18.40;99.90;;;;;;4883067;29;20108;-86
2022/06/04 08:38:02;;;;;;;3.60;1.92;;;18.50;99.90;;;;;;4883507;29;20092;-84
2022/06/04 08:40:33;;;;;;;1.53;1.43;;;18.60;99.90;;;;;;4867062;29;20496;-86
2022/06/04 08:43:25;;;;;;;2.53;2.10;;;18.70;99.90;;;;;;4883203;29;20784;-86
2022/06/04 08:45:51;;;;;;;11.93;2.95;;;18.90;99.90;;;;;;4856484;29;20053;-84
2022/06/04 08:48:30;;;;;;;2.88;2.17;;;18.90;99.90;;;;;;4877856;29;20176;-84
2022/06/04 08:50:56;;;;;;;5.45;2.55;;;19.00;99.90;;;;;;4879970;29;20049;-84
2022/06/04 08:53:27;;;;;;;5.30;1.88;;;19.00;99.90;;;;;;4857733;29;20052;-86
2022/06/04 08:59:03;;;;;;;2.38;1.92;;;19.10;99.90;;;;;;4879000;29;20052;-85
2022/06/04 09:01:39;;;;;;;3.33;2.28;;;19.20;99.90;;;;;;4898091;29;20045;-84
2022/06/04 09:04:35;;;;;;;5.43;2.60;;;19.20;99.90;;;;;;4882796;29;20131;-86
2022/06/04 09:07:11;;;;;;;2.95;1.80;;;19.30;99.90;;;;;;4848719;29;20143;-84
2022/06/04 09:09:45;;;;;;;2.10;1.90;;;19.50;99.90;;;;;;4897304;29;20396;-85
2022/06/04 09:12:38;;;;;;;3.72;2.08;;;19.50;99.90;;;;;;4880770;29;20048;-86
2022/06/04 09:15:27;;;;;;;2.03;1.60;;;19.60;99.90;;;;;;4891588;29;20056;-85
2022/06/04 09:17:56;;;;;;;5.80;2.05;;;19.60;99.90;;;;;;4876932;29;20140;-85
2022/06/04 09:20:32;;;;;;;3.42;2.22;;;19.70;99.90;;;;;;4874707;29;20045;-85
2022/06/04 09:23:06;;;;;;;3.40;2.10;;;19.70;99.90;;;;;;4877864;29;21734;-85
2022/06/04 09:25:59;;;;;;;2.45;1.88;;;19.80;99.90;;;;;;4877386;29;20084;-85
2022/06/04 09:28:51;;;;;;;3.17;2.38;;;19.90;99.90;;;;;;4826814;29;20116;-86
2022/06/04 09:31:44;;;;;;;2.88;1.77;;;19.90;99.90;;;;;;4845899;29;20512;-84
2022/06/04 09:34:38;;;;;;;2.33;1.85;;;20.00;99.90;;;;;;4852242;29;20042;-84
2022/06/04 09:37:06;;;;;;;2.15;1.80;;;20.10;99.90;;;;;;4879286;29;20580;-84
2022/06/04 09:39:35;;;;;;;4.57;1.85;;;20.20;99.90;;;;;;4876649;29;20057;-86
2022/06/04 09:42:10;;;;;;;3.78;1.70;;;20.20;99.90;;;;;;4876961;29;20049;-86
2022/06/04 09:44:48;;;;;;;2.17;1.77;;;20.20;99.90;;;;;;4876966;29;20052;-86
2022/06/04 09:47:16;;;;;;;2.08;1.70;;;20.20;99.90;;;;;;4877055;29;20068;-88
2022/06/04 09:50:00;;;;;;;2.97;1.70;;;20.20;99.90;;;;;;4878867;29;20053;-85
2022/06/04 09:52:37;;;;;;;2.75;2.10;;;20.30;99.90;;;;;;4877917;29;20045;-85
2022/06/04 09:55:15;;;;;;;1.73;1.63;;;20.30;99.90;;;;;;4876989;29;20045;-85
2022/06/04 09:57:41;;;;;;;6.80;1.85;;;20.40;99.90;;;;;;4874877;29;20061;-85
2022/06/04 10:00:27;;;;;;;;;;;20.40;99.90;;;;;;4877768;29;20053;-84
2022/06/04 10:03:00;;;;;;;2.20;1.60;;;20.40;99.90;;;;;;4876680;29;19977;-84
2022/06/04 10:05:30;;;;;;;1.95;1.65;;;20.50;99.90;;;;;;4876306;29;20512;-85
2022/06/04 10:07:56;;;;;;;1.98;1.63;;;20.70;99.90;;;;;;4877213;29;20131;-84
2022/06/04 10:10:42;;;;;;;;;;;20.70;99.90;;;;;;4877000;29;20049;-85
2022/06/04 10:13:42;;;;;;;3.08;1.83;;;20.80;99.90;;;;;;4892250;29;19978;-85
2022/06/04 10:16:24;;;;;;;2.38;1.52;;;20.90;99.90;;;;;;4876472;29;20087;-84
2022/06/04 10:18:55;;;;;;;5.32;2.53;;;21.00;99.90;;;;;;4876834;29;20399;-86
2022/06/04 10:21:34;;;;;;;2.55;1.58;;;21.00;99.90;;;;;;4876389;29;20482;-86
2022/06/04 10:24:05;;;;;;;1.58;1.38;;;21.00;99.90;;;;;;4874654;29;20063;-85
2022/06/04 10:26:57;;;;;;;2.92;1.80;;;21.00;99.90;;;;;;4877781;29;20056;-86
2022/06/04 10:29:26;;;;;;;2.13;1.40;;;21.10;99.90;;;;;;4876412;29;20049;-87
2022/06/04 10:32:14;;;;;;;1.70;1.60;;;21.20;99.90;;;;;;4849170;29;20049;-86
2022/06/04 10:34:51;;;;;;;1.77;1.30;;;21.30;99.90;;;;;;4876348;29;20508;-86
2022/06/04 10:37:35;;;;;;;1.75;1.63;;;21.30;99.90;;;;;;4892348;29;20127;-86
2022/06/04 10:40:36;;;;;;;2.25;1.27;;;21.40;99.90;;;;;;4876284;29;20386;-86
2022/06/04 10:43:12;;;;;;;2.08;1.75;;;21.40;99.90;;;;;;4876696;29;20056;-86
2022/06/04 10:45:50;;;;;;;5.30;2.13;;;21.50;99.90;;;;;;4853005;29;20053;-86
2022/06/04 10:48:38;;;;;;;3.08;1.90;;;21.50;99.90;;;;;;4874652;29;20130;-87
2022/06/04 10:51:28;;;;;;;2.28;1.40;;;21.60;99.90;;;;;;4876158;29;20049;-86
2022/06/04 10:54:12;;;;;;;2.55;1.45;;;21.60;99.90;;;;;;4846200;29;20044;-87
2022/06/04 10:56:45;;;;;;;2.38;1.40;;;21.60;99.90;;;;;;4891127;29;20037;-86
2022/06/04 10:59:48;;;;;;;1.90;1.65;;;21.60;99.90;;;;;;4876763;29;20049;-86
2022/06/04 11:02:28;;;;;;;1.48;1.38;;;21.50;99.90;;;;;;4873497;29;20049;-86
2022/06/04 11:05:06;;;;;;;2.83;1.63;;;21.50;99.90;;;;;;4876371;29;20049;-87
2022/06/04 11:07:52;;;;;;;1.73;1.58;;;21.50;99.90;;;;;;4875740;29;20053;-86
2022/06/04 11:10:22;;;;;;;2.70;1.25;;;21.60;99.90;;;;;;4879659;29;20049;-87
2022/06/04 11:12:56;;;;;;;2.40;1.77;;;21.60;99.90;;;;;;4875599;29;20515;-86
2022/06/04 11:15:50;;;;;;;2.30;1.80;;;21.70;99.90;;;;;;4875788;29;20057;-86
2022/06/04 11:18:22;;;;;;;2.25;1.52;;;21.70;99.90;;;;;;4876410;29;20049;-87
2022/06/04 11:21:08;;;;;;;1.23;1.13;;;21.70;99.90;;;;;;4890717;29;20041;-87
2022/06/04 11:23:46;;;;;;;3.22;1.52;;;21.80;99.90;;;;;;4874079;29;20045;-86
2022/06/04 11:26:21;;;;;;;2.45;1.70;;;21.80;99.90;;;;;;4876139;29;20121;-87
2022/06/04 11:28:48;;;;;;;3.10;1.50;;;23.00;99.90;;;;;;4875779;29;20048;-86
2022/06/04 11:31:29;;;;;;;5.72;2.50;;;21.90;99.90;;;;;;4892141;29;20408;-86
2022/06/04 11:34:12;;;;;;;4.47;2.17;;;21.90;99.90;;;;;;4877135;29;20096;-87
2022/06/04 11:37:00;;;;;;;1.30;1.20;;;21.90;99.90;;;;;;4875526;29;20045;-87
2022/06/04 11:39:41;;;;;;;2.25;1.70;;;21.90;99.90;;;;;;4869812;29;20048;-87
2022/06/04 11:42:15;;;;;;;1.67;1.30;;;21.90;99.90;;;;;;4861666;29;20508;-87
2022/06/04 11:44:54;;;;;;;5.38;2.00;;;21.90;99.90;;;;;;4876920;29;20053;-87
2022/06/04 11:47:41;;;;;;;1.63;0.98;;;22.00;99.90;;;;;;4877551;29;20057;-87
2022/06/04 11:50:26;;;;;;;3.35;1.52;;;22.10;98.80;;;;;;4861603;29;20048;-86
2022/06/04 11:52:59;;;;;;;5.80;1.92;;;22.10;99.90;;;;;;4876653;29;20075;-87
2022/06/04 11:55:40;;;;;;;4.95;3.25;;;22.20;99.20;;;;;;4876136;29;20489;-86
2022/06/04 11:58:31;;;;;;;3.10;1.80;;;22.20;99.60;;;;;;4877366;29;20056;-85
2022/06/04 12:01:05;;;;;;;1.52;1.42;;;22.30;98.60;;;;;;4874434;29;20522;-85
2022/06/04 12:03:53;;;;;;;2.40;1.83;;;22.40;97.90;;;;;;4876339;29;20053;-88
2022/06/04 12:06:21;;;;;;;2.67;1.70;;;22.50;98.00;;;;;;4880486;29;20053;-84
2022/06/04 12:09:08;;;;;;;3.00;1.60;;;22.60;98.30;;;;;;4880181;29;20045;-85
2022/06/04 12:11:44;;;;;;;2.63;1.77;;;22.80;98.00;;;;;;4870410;29;20049;-88
2022/06/04 12:14:41;;;;;;;2.58;1.70;;;22.90;98.20;;;;;;4889426;29;20046;-88
2022/06/04 12:17:39;;;;;;;2.20;1.33;;;23.00;97.90;;;;;;4863658;29;20064;-88
2022/06/04 12:26:50;;;;;;;1.67;1.48;;;23.00;97.00;;;;;;4861853;29;20061;-88
2022/06/04 12:29:28;;;;;;;3.13;1.48;;;22.90;96.70;;;;;;4821581;29;20057;-88
2022/06/04 12:32:18;;;;;;;2.72;1.75;;;22.80;96.80;;;;;;4860859;29;20531;-88
2022/06/04 12:34:44;;;;;;;2.55;1.38;;;22.80;96.50;;;;;;4861208;29;20052;-88
2022/06/04 12:37:32;;;;;;;1.85;1.58;;;22.80;96.80;;;;;;4861556;29;20516;-88
2022/06/04 12:40:12;;;;;;;1.23;1.10;;;22.80;95.00;;;;;;4861012;29;20636;-88
2022/06/04 12:42:38;;;;;;;1.92;1.38;;;22.80;96.10;;;;;;4861399;29;20061;-87
2022/06/04 12:45:25;;;;;;;2.35;1.33;;;22.90;96.10;;;;;;4830554;29;20136;-88
2022/06/04 12:47:57;;;;;;;3.20;1.40;;;23.00;96.00;;;;;;4860729;29;20061;-88
2022/06/04 12:50:29;;;;;;;4.22;1.50;;;23.10;96.10;;;;;;4859362;29;20057;-87
2022/06/04 12:53:06;;;;;;;2.35;1.40;;;22.30;95.40;;;;;;4863856;29;20061;-88
2022/06/04 12:55:37;;;;;;;1.75;1.40;;;23.20;94.30;;;;;;4879818;29;20085;-87
2022/06/04 12:58:27;;;;;;;3.10;1.42;;;23.20;95.10;;;;;;4879096;29;20049;-87
2022/06/04 13:01:05;;;;;;;1.60;1.25;;;23.20;94.40;;;;;;4879226;29;20049;-88
2022/06/04 13:03:39;;;;;;;3.25;1.60;;;23.20;94.00;;;;;;4879710;29;20093;-88
2022/06/04 13:06:33;;;;;;;2.10;1.30;;;23.30;94.60;;;;;;4879388;29;20109;-88
2022/06/04 13:09:13;;;;;;;2.25;1.30;;;23.80;94.80;;;;;;4879068;29;20072;-88
2022/06/04 13:11:43;;;;;;;1.58;1.42;;;23.70;94.10;;;;;;4879707;29;20049;-87
2022/06/04 13:14:33;;;;;;;1.83;1.63;;;23.70;94.20;;;;;;4879214;29;20052;-87
2022/06/04 13:17:11;;;;;;;1.00;0.90;;;23.70;93.20;;;;;;4878520;29;20068;-88
2022/06/04 13:20:03;;;;;;;6.75;2.35;;;23.80;93.70;;;;;;4858973;29;20058;-88
2022/06/04 13:22:34;;;;;;;1.73;1.10;;;23.80;91.70;;;;;;4876532;29;20057;-88
2022/06/04 13:25:05;;;;;;;1.55;1.05;;;23.80;92.30;;;;;;4860318;29;20124;-88
2022/06/04 13:27:43;;;;;;;3.85;1.35;;;23.80;92.80;;;;;;4860795;29;20056;-88
2022/06/04 13:30:27;;;;;;;1.60;1.33;;;23.80;91.90;;;;;;4875955;29;20056;-88
2022/06/04 13:32:58;;;;;;;3.90;2.47;;;23.90;92.00;;;;;;4875216;29;20085;-88
2022/06/04 13:35:24;;;;;;;2.97;1.05;;;23.90;92.10;;;;;;4844018;29;20057;-88